sensor_id;sensor_type;location;lat;lon;timestamp;P1;durP1;ratioP1;P2;durP2;ratioP2
74229;SDS011;62589;12.568;99.958;2023-04-15T00:00:54;83.95;;;60.60;;
74229;SDS011;62589;12.568;99.958;2023-04-15T00:03:21;79.00;;;59.15;;
74229;SDS011;62589;12.568;99.958;2023-04-15T00:05:48;87.28;;;60.90;;
74229;SDS011;62589;12.568;99.958;2023-04-15T00:08:15;75.13;;;59.60;;
74229;SDS011;62589;12.568;99.958;2023-04-15T00:10:41;74.10;;;57.40;;
74229;SDS011;62589;12.568;99.958;2023-04-15T00:13:08;72.15;;;56.75;;
74229;SDS011;62589;12.568;99.958;2023-04-15T00:15:35;73.20;;;58.42;;
74229;SDS011;62589;12.568;99.958;2023-04-15T00:18:02;81.40;;;60.30;;
74229;SDS011;62589;12.568;99.958;2023-04-15T00:20:28;78.88;;;58.15;;
74229;SDS011;62589;12.568;99.958;2023-04-15T00:22:55;73.20;;;57.92;;
74229;SDS011;62589;12.568;99.958;2023-04-15T00:25:23;71.05;;;55.92;;
74229;SDS011;62589;12.568;99.958;2023-04-15T00:27:49;74.72;;;58.13;;
74229;SDS011;62589;12.568;99.958;2023-04-15T00:30:16;75.05;;;57.45;;
74229;SDS011;62589;12.568;99.958;2023-04-15T00:32:43;80.65;;;58.65;;
74229;SDS011;62589;12.568;99.958;2023-04-15T00:35:10;76.22;;;57.20;;
74229;SDS011;62589;12.568;99.958;2023-04-15T00:37:37;76.90;;;59.42;;
74229;SDS011;62589;12.568;99.958;2023-04-15T00:40:03;78.90;;;57.88;;
74229;SDS011;62589;12.568;99.958;2023-04-15T00:42:30;75.15;;;57.20;;
74229;SDS011;62589;12.568;99.958;2023-04-15T00:44:57;73.80;;;57.95;;
74229;SDS011;62589;12.568;99.958;2023-04-15T00:47:23;72.82;;;56.95;;
74229;SDS011;62589;12.568;99.958;2023-04-15T00:49:51;70.53;;;56.00;;
74229;SDS011;62589;12.568;99.958;2023-04-15T00:52:18;70.75;;;55.95;;
74229;SDS011;62589;12.568;99.958;2023-04-15T00:54:44;71.00;;;55.15;;
74229;SDS011;62589;12.568;99.958;2023-04-15T00:57:11;78.20;;;57.90;;
74229;SDS011;62589;12.568;99.958;2023-04-15T00:59:39;78.43;;;57.90;;
74229;SDS011;62589;12.568;99.958;2023-04-15T01:02:06;74.00;;;54.53;;
74229;SDS011;62589;12.568;99.958;2023-04-15T01:04:32;72.22;;;53.65;;
74229;SDS011;62589;12.568;99.958;2023-04-15T01:06:59;71.93;;;53.92;;
74229;SDS011;62589;12.568;99.958;2023-04-15T01:09:25;68.78;;;54.70;;
74229;SDS011;62589;12.568;99.958;2023-04-15T01:11:51;73.07;;;54.63;;
74229;SDS011;62589;12.568;99.958;2023-04-15T01:14:18;71.63;;;54.25;;
74229;SDS011;62589;12.568;99.958;2023-04-15T01:16:45;69.00;;;55.22;;
74229;SDS011;62589;12.568;99.958;2023-04-15T01:19:12;68.55;;;53.38;;
74229;SDS011;62589;12.568;99.958;2023-04-15T01:21:42;68.97;;;54.28;;
74229;SDS011;62589;12.568;99.958;2023-04-15T01:24:09;73.70;;;57.00;;
74229;SDS011;62589;12.568;99.958;2023-04-15T01:26:39;70.03;;;53.00;;
74229;SDS011;62589;12.568;99.958;2023-04-15T01:29:06;71.75;;;53.88;;
74229;SDS011;62589;12.568;99.958;2023-04-15T01:31:32;67.53;;;53.15;;
74229;SDS011;62589;12.568;99.958;2023-04-15T01:49:19;57.15;;;48.38;;
74229;SDS011;62589;12.568;99.958;2023-04-15T01:51:46;64.55;;;50.08;;
74229;SDS011;62589;12.568;99.958;2023-04-15T01:54:13;63.70;;;49.13;;
74229;SDS011;62589;12.568;99.958;2023-04-15T01:56:39;58.47;;;47.80;;
74229;SDS011;62589;12.568;99.958;2023-04-15T01:59:05;62.25;;;48.03;;
74229;SDS011;62589;12.568;99.958;2023-04-15T02:01:32;59.70;;;46.45;;
74229;SDS011;62589;12.568;99.958;2023-04-15T02:03:58;62.83;;;48.40;;
74229;SDS011;62589;12.568;99.958;2023-04-15T02:06:25;60.65;;;47.65;;
74229;SDS011;62589;12.568;99.958;2023-04-15T02:08:52;61.13;;;46.28;;
74229;SDS011;62589;12.568;99.958;2023-04-15T02:11:18;61.65;;;47.40;;
74229;SDS011;62589;12.568;99.958;2023-04-15T02:13:45;60.95;;;47.25;;
74229;SDS011;62589;12.568;99.958;2023-04-15T02:16:15;56.00;;;45.47;;
74229;SDS011;62589;12.568;99.958;2023-04-15T02:18:45;59.47;;;46.72;;
74229;SDS011;62589;12.568;99.958;2023-04-15T02:21:12;58.20;;;46.47;;
74229;SDS011;62589;12.568;99.958;2023-04-15T02:23:39;58.40;;;45.25;;
74229;SDS011;62589;12.568;99.958;2023-04-15T02:26:05;54.67;;;44.88;;
74229;SDS011;62589;12.568;99.958;2023-04-15T02:28:32;54.78;;;44.67;;
74229;SDS011;62589;12.568;99.958;2023-04-15T02:30:58;57.90;;;44.97;;
74229;SDS011;62589;12.568;99.958;2023-04-15T02:33:26;55.65;;;44.13;;
74229;SDS011;62589;12.568;99.958;2023-04-15T02:35:52;54.90;;;43.97;;
74229;SDS011;62589;12.568;99.958;2023-04-15T02:38:19;49.95;;;42.72;;
74229;SDS011;62589;12.568;99.958;2023-04-15T02:40:45;53.67;;;42.83;;
74229;SDS011;62589;12.568;99.958;2023-04-15T02:43:13;55.60;;;43.97;;
74229;SDS011;62589;12.568;99.958;2023-04-15T02:45:41;52.78;;;44.72;;
74229;SDS011;62589;12.568;99.958;2023-04-15T02:48:08;53.17;;;44.15;;
74229;SDS011;62589;12.568;99.958;2023-04-15T02:50:35;54.92;;;44.25;;
74229;SDS011;62589;12.568;99.958;2023-04-15T02:53:03;58.17;;;46.45;;
74229;SDS011;62589;12.568;99.958;2023-04-15T02:55:30;59.78;;;45.95;;
74229;SDS011;62589;12.568;99.958;2023-04-15T02:57:56;54.40;;;45.83;;
74229;SDS011;62589;12.568;99.958;2023-04-15T03:00:25;52.30;;;44.42;;
74229;SDS011;62589;12.568;99.958;2023-04-15T03:02:56;59.03;;;45.63;;
74229;SDS011;62589;12.568;99.958;2023-04-15T03:05:26;54.17;;;45.03;;
74229;SDS011;62589;12.568;99.958;2023-04-15T03:07:53;51.15;;;43.60;;
74229;SDS011;62589;12.568;99.958;2023-04-15T03:10:20;52.67;;;43.47;;
74229;SDS011;62589;12.568;99.958;2023-04-15T03:12:46;52.38;;;43.25;;
74229;SDS011;62589;12.568;99.958;2023-04-15T03:15:14;51.67;;;42.05;;
74229;SDS011;62589;12.568;99.958;2023-04-15T03:17:41;50.80;;;42.80;;
74229;SDS011;62589;12.568;99.958;2023-04-15T03:20:07;53.72;;;42.60;;
74229;SDS011;62589;12.568;99.958;2023-04-15T03:22:34;52.38;;;41.30;;
74229;SDS011;62589;12.568;99.958;2023-04-15T03:25:00;49.42;;;41.90;;
74229;SDS011;62589;12.568;99.958;2023-04-15T03:27:27;49.58;;;41.22;;
74229;SDS011;62589;12.568;99.958;2023-04-15T03:29:53;46.92;;;39.92;;
74229;SDS011;62589;12.568;99.958;2023-04-15T03:32:21;49.40;;;39.20;;
74229;SDS011;62589;12.568;99.958;2023-04-15T03:34:47;46.90;;;39.45;;
74229;SDS011;62589;12.568;99.958;2023-04-15T03:37:13;54.75;;;42.53;;
74229;SDS011;62589;12.568;99.958;2023-04-15T03:39:40;52.60;;;43.97;;
74229;SDS011;62589;12.568;99.958;2023-04-15T03:42:06;58.10;;;45.75;;
74229;SDS011;62589;12.568;99.958;2023-04-15T03:44:33;57.03;;;45.03;;
74229;SDS011;62589;12.568;99.958;2023-04-15T03:46:59;57.28;;;47.03;;
74229;SDS011;62589;12.568;99.958;2023-04-15T03:49:25;61.38;;;47.95;;
74229;SDS011;62589;12.568;99.958;2023-04-15T03:51:52;58.05;;;47.15;;
74229;SDS011;62589;12.568;99.958;2023-04-15T03:54:18;53.92;;;44.05;;
74229;SDS011;62589;12.568;99.958;2023-04-15T03:56:45;58.22;;;46.17;;
74229;SDS011;62589;12.568;99.958;2023-04-15T03:59:11;59.13;;;47.72;;
74229;SDS011;62589;12.568;99.958;2023-04-15T04:01:37;66.53;;;51.83;;
74229;SDS011;62589;12.568;99.958;2023-04-15T04:04:04;62.17;;;49.28;;
74229;SDS011;62589;12.568;99.958;2023-04-15T04:06:30;60.95;;;49.15;;
74229;SDS011;62589;12.568;99.958;2023-04-15T04:08:57;59.95;;;48.33;;
74229;SDS011;62589;12.568;99.958;2023-04-15T04:11:23;55.97;;;45.92;;
74229;SDS011;62589;12.568;99.958;2023-04-15T04:13:50;57.30;;;47.05;;
74229;SDS011;62589;12.568;99.958;2023-04-15T04:16:16;59.50;;;47.17;;
74229;SDS011;62589;12.568;99.958;2023-04-15T04:18:43;56.65;;;47.20;;
74229;SDS011;62589;12.568;99.958;2023-04-15T04:21:09;52.35;;;44.40;;
74229;SDS011;62589;12.568;99.958;2023-04-15T04:23:35;56.53;;;47.50;;
74229;SDS011;62589;12.568;99.958;2023-04-15T04:26:02;55.58;;;45.08;;
74229;SDS011;62589;12.568;99.958;2023-04-15T04:28:28;54.63;;;46.28;;
74229;SDS011;62589;12.568;99.958;2023-04-15T04:30:55;58.03;;;45.15;;
74229;SDS011;62589;12.568;99.958;2023-04-15T04:33:21;58.53;;;45.83;;
74229;SDS011;62589;12.568;99.958;2023-04-15T04:35:47;55.67;;;44.78;;
74229;SDS011;62589;12.568;99.958;2023-04-15T04:38:14;61.70;;;46.45;;
74229;SDS011;62589;12.568;99.958;2023-04-15T04:40:40;60.22;;;46.50;;
74229;SDS011;62589;12.568;99.958;2023-04-15T04:43:07;56.25;;;45.65;;
74229;SDS011;62589;12.568;99.958;2023-04-15T04:45:33;52.28;;;44.28;;
74229;SDS011;62589;12.568;99.958;2023-04-15T04:48:00;67.00;;;47.08;;
74229;SDS011;62589;12.568;99.958;2023-04-15T04:50:26;60.88;;;47.65;;
74229;SDS011;62589;12.568;99.958;2023-04-15T04:52:53;63.33;;;47.42;;
74229;SDS011;62589;12.568;99.958;2023-04-15T04:55:19;57.53;;;46.97;;
74229;SDS011;62589;12.568;99.958;2023-04-15T04:57:46;56.45;;;47.15;;
74229;SDS011;62589;12.568;99.958;2023-04-15T05:00:12;64.47;;;49.35;;
74229;SDS011;62589;12.568;99.958;2023-04-15T05:02:39;60.60;;;48.95;;
74229;SDS011;62589;12.568;99.958;2023-04-15T05:05:08;63.83;;;48.10;;
74229;SDS011;62589;12.568;99.958;2023-04-15T05:07:36;55.30;;;45.70;;
74229;SDS011;62589;12.568;99.958;2023-04-15T05:10:04;56.92;;;46.33;;
74229;SDS011;62589;12.568;99.958;2023-04-15T05:12:30;57.30;;;47.10;;
74229;SDS011;62589;12.568;99.958;2023-04-15T05:14:57;58.78;;;47.00;;
74229;SDS011;62589;12.568;99.958;2023-04-15T05:17:23;61.92;;;46.83;;
74229;SDS011;62589;12.568;99.958;2023-04-15T05:19:49;61.58;;;47.05;;
74229;SDS011;62589;12.568;99.958;2023-04-15T05:22:16;53.75;;;45.58;;
74229;SDS011;62589;12.568;99.958;2023-04-15T05:24:42;58.53;;;47.40;;
74229;SDS011;62589;12.568;99.958;2023-04-15T05:27:08;58.92;;;45.60;;
74229;SDS011;62589;12.568;99.958;2023-04-15T05:29:36;57.10;;;46.92;;
74229;SDS011;62589;12.568;99.958;2023-04-15T05:32:02;56.45;;;46.40;;
74229;SDS011;62589;12.568;99.958;2023-04-15T05:34:28;60.92;;;48.15;;
74229;SDS011;62589;12.568;99.958;2023-04-15T05:36:55;62.33;;;48.25;;
74229;SDS011;62589;12.568;99.958;2023-04-15T05:39:21;58.28;;;46.53;;
74229;SDS011;62589;12.568;99.958;2023-04-15T05:41:48;54.83;;;45.55;;
74229;SDS011;62589;12.568;99.958;2023-04-15T05:44:14;56.17;;;44.80;;
74229;SDS011;62589;12.568;99.958;2023-04-15T05:46:40;63.30;;;48.42;;
74229;SDS011;62589;12.568;99.958;2023-04-15T05:49:07;62.40;;;47.80;;
74229;SDS011;62589;12.568;99.958;2023-04-15T05:51:33;64.20;;;48.28;;
74229;SDS011;62589;12.568;99.958;2023-04-15T05:54:00;59.50;;;48.67;;
74229;SDS011;62589;12.568;99.958;2023-04-15T05:56:26;65.82;;;48.83;;
74229;SDS011;62589;12.568;99.958;2023-04-15T05:58:53;63.95;;;46.05;;
74229;SDS011;62589;12.568;99.958;2023-04-15T06:01:19;60.45;;;47.53;;
74229;SDS011;62589;12.568;99.958;2023-04-15T06:03:46;63.35;;;49.30;;
74229;SDS011;62589;12.568;99.958;2023-04-15T06:06:13;61.25;;;47.33;;
74229;SDS011;62589;12.568;99.958;2023-04-15T06:08:40;64.35;;;49.40;;
74229;SDS011;62589;12.568;99.958;2023-04-15T06:11:06;64.72;;;49.88;;
74229;SDS011;62589;12.568;99.958;2023-04-15T06:13:32;63.85;;;48.22;;
74229;SDS011;62589;12.568;99.958;2023-04-15T06:15:59;64.88;;;48.17;;
74229;SDS011;62589;12.568;99.958;2023-04-15T06:18:26;63.13;;;49.45;;
74229;SDS011;62589;12.568;99.958;2023-04-15T06:20:52;62.00;;;48.03;;
74229;SDS011;62589;12.568;99.958;2023-04-15T06:23:19;57.70;;;46.08;;
74229;SDS011;62589;12.568;99.958;2023-04-15T06:25:45;69.75;;;49.55;;
74229;SDS011;62589;12.568;99.958;2023-04-15T06:28:11;62.75;;;48.78;;
74229;SDS011;62589;12.568;99.958;2023-04-15T06:30:38;58.50;;;47.67;;
74229;SDS011;62589;12.568;99.958;2023-04-15T06:33:04;63.58;;;48.80;;
74229;SDS011;62589;12.568;99.958;2023-04-15T06:35:31;60.63;;;48.40;;
74229;SDS011;62589;12.568;99.958;2023-04-15T06:37:58;64.53;;;49.50;;
74229;SDS011;62589;12.568;99.958;2023-04-15T06:40:24;63.22;;;49.47;;
74229;SDS011;62589;12.568;99.958;2023-04-15T06:42:51;62.50;;;49.97;;
74229;SDS011;62589;12.568;99.958;2023-04-15T06:45:17;62.45;;;49.85;;
74229;SDS011;62589;12.568;99.958;2023-04-15T06:47:43;65.40;;;50.15;;
74229;SDS011;62589;12.568;99.958;2023-04-15T06:50:10;67.03;;;51.13;;
74229;SDS011;62589;12.568;99.958;2023-04-15T06:52:36;63.38;;;50.20;;
74229;SDS011;62589;12.568;99.958;2023-04-15T06:55:03;66.15;;;50.35;;
74229;SDS011;62589;12.568;99.958;2023-04-15T06:57:30;61.95;;;48.30;;
74229;SDS011;62589;12.568;99.958;2023-04-15T06:59:56;66.50;;;51.40;;
74229;SDS011;62589;12.568;99.958;2023-04-15T07:02:22;62.92;;;49.25;;
74229;SDS011;62589;12.568;99.958;2023-04-15T07:04:49;62.80;;;51.63;;
74229;SDS011;62589;12.568;99.958;2023-04-15T07:07:15;64.63;;;50.88;;
74229;SDS011;62589;12.568;99.958;2023-04-15T07:09:42;61.30;;;49.42;;
74229;SDS011;62589;12.568;99.958;2023-04-15T07:12:08;64.05;;;49.33;;
74229;SDS011;62589;12.568;99.958;2023-04-15T07:14:35;71.13;;;53.50;;
74229;SDS011;62589;12.568;99.958;2023-04-15T07:17:02;64.32;;;50.78;;
74229;SDS011;62589;12.568;99.958;2023-04-15T07:19:28;77.82;;;57.40;;
74229;SDS011;62589;12.568;99.958;2023-04-15T07:21:54;68.88;;;51.45;;
74229;SDS011;62589;12.568;99.958;2023-04-15T07:24:21;68.55;;;52.67;;
74229;SDS011;62589;12.568;99.958;2023-04-15T07:26:52;71.80;;;52.60;;
74229;SDS011;62589;12.568;99.958;2023-04-15T07:29:22;67.45;;;51.78;;
74229;SDS011;62589;12.568;99.958;2023-04-15T07:31:48;63.85;;;49.58;;
74229;SDS011;62589;12.568;99.958;2023-04-15T07:34:14;63.35;;;50.83;;
74229;SDS011;62589;12.568;99.958;2023-04-15T07:36:41;59.20;;;47.90;;
74229;SDS011;62589;12.568;99.958;2023-04-15T07:39:08;61.72;;;48.20;;
74229;SDS011;62589;12.568;99.958;2023-04-15T07:41:34;64.88;;;48.03;;
74229;SDS011;62589;12.568;99.958;2023-04-15T07:44:01;64.20;;;48.60;;
74229;SDS011;62589;12.568;99.958;2023-04-15T07:46:28;61.55;;;48.47;;
74229;SDS011;62589;12.568;99.958;2023-04-15T07:48:54;65.05;;;49.97;;
74229;SDS011;62589;12.568;99.958;2023-04-15T07:51:21;64.65;;;49.63;;
74229;SDS011;62589;12.568;99.958;2023-04-15T07:53:48;67.25;;;51.28;;
74229;SDS011;62589;12.568;99.958;2023-04-15T07:56:14;63.05;;;50.05;;
74229;SDS011;62589;12.568;99.958;2023-04-15T07:58:41;60.55;;;49.95;;
74229;SDS011;62589;12.568;99.958;2023-04-15T08:01:07;66.22;;;53.03;;
74229;SDS011;62589;12.568;99.958;2023-04-15T08:03:34;64.60;;;52.60;;
74229;SDS011;62589;12.568;99.958;2023-04-15T08:06:00;67.57;;;52.40;;
74229;SDS011;62589;12.568;99.958;2023-04-15T08:08:26;61.72;;;50.60;;
74229;SDS011;62589;12.568;99.958;2023-04-15T08:10:53;73.63;;;53.67;;
74229;SDS011;62589;12.568;99.958;2023-04-15T08:13:19;62.03;;;51.35;;
74229;SDS011;62589;12.568;99.958;2023-04-15T08:15:52;67.47;;;53.38;;
74229;SDS011;62589;12.568;99.958;2023-04-15T08:18:38;68.57;;;53.40;;
74229;SDS011;62589;12.568;99.958;2023-04-15T08:21:05;71.85;;;52.28;;
74229;SDS011;62589;12.568;99.958;2023-04-15T08:23:31;66.70;;;51.72;;
74229;SDS011;62589;12.568;99.958;2023-04-15T08:25:57;71.40;;;54.85;;
74229;SDS011;62589;12.568;99.958;2023-04-15T08:28:24;69.22;;;53.90;;
74229;SDS011;62589;12.568;99.958;2023-04-15T08:30:51;79.05;;;55.78;;
74229;SDS011;62589;12.568;99.958;2023-04-15T08:33:18;68.13;;;53.03;;
74229;SDS011;62589;12.568;99.958;2023-04-15T08:35:44;67.13;;;54.05;;
74229;SDS011;62589;12.568;99.958;2023-04-15T08:38:10;69.78;;;54.72;;
74229;SDS011;62589;12.568;99.958;2023-04-15T08:40:41;69.00;;;53.83;;
74229;SDS011;62589;12.568;99.958;2023-04-15T08:45:51;66.95;;;52.75;;
74229;SDS011;62589;12.568;99.958;2023-04-15T08:48:18;70.25;;;52.42;;
74229;SDS011;62589;12.568;99.958;2023-04-15T08:50:45;69.97;;;53.50;;
74229;SDS011;62589;12.568;99.958;2023-04-15T08:53:13;70.68;;;53.22;;
74229;SDS011;62589;12.568;99.958;2023-04-15T08:55:43;69.07;;;52.42;;
74229;SDS011;62589;12.568;99.958;2023-04-15T08:58:11;64.60;;;49.20;;
74229;SDS011;62589;12.568;99.958;2023-04-15T09:00:39;67.55;;;52.63;;
74229;SDS011;62589;12.568;99.958;2023-04-15T09:03:06;68.30;;;51.03;;
74229;SDS011;62589;12.568;99.958;2023-04-15T09:05:34;68.25;;;51.72;;
74229;SDS011;62589;12.568;99.958;2023-04-15T09:08:01;70.18;;;53.15;;
74229;SDS011;62589;12.568;99.958;2023-04-15T09:10:28;66.93;;;53.08;;
74229;SDS011;62589;12.568;99.958;2023-04-15T09:12:56;68.57;;;52.47;;
74229;SDS011;62589;12.568;99.958;2023-04-15T09:15:25;62.28;;;51.25;;
74229;SDS011;62589;12.568;99.958;2023-04-15T09:17:53;75.43;;;53.35;;
74229;SDS011;62589;12.568;99.958;2023-04-15T09:20:21;72.43;;;53.80;;
74229;SDS011;62589;12.568;99.958;2023-04-15T09:22:48;68.35;;;53.17;;
74229;SDS011;62589;12.568;99.958;2023-04-15T09:25:25;72.43;;;52.60;;
74229;SDS011;62589;12.568;99.958;2023-04-15T09:27:54;67.20;;;53.75;;
74229;SDS011;62589;12.568;99.958;2023-04-15T09:30:22;70.25;;;52.63;;
74229;SDS011;62589;12.568;99.958;2023-04-15T09:32:50;61.80;;;51.90;;
74229;SDS011;62589;12.568;99.958;2023-04-15T09:35:21;66.95;;;52.00;;
74229;SDS011;62589;12.568;99.958;2023-04-15T09:37:49;63.10;;;49.15;;
74229;SDS011;62589;12.568;99.958;2023-04-15T09:43:03;63.60;;;50.10;;
74229;SDS011;62589;12.568;99.958;2023-04-15T09:45:31;68.53;;;50.97;;
74229;SDS011;62589;12.568;99.958;2023-04-15T09:53:28;65.05;;;50.03;;
74229;SDS011;62589;12.568;99.958;2023-04-15T09:55:59;62.90;;;49.92;;
74229;SDS011;62589;12.568;99.958;2023-04-15T09:58:27;63.80;;;51.42;;
74229;SDS011;62589;12.568;99.958;2023-04-15T10:00:55;64.35;;;51.10;;
74229;SDS011;62589;12.568;99.958;2023-04-15T10:03:25;66.18;;;49.42;;
74229;SDS011;62589;12.568;99.958;2023-04-15T10:05:53;66.00;;;50.30;;
74229;SDS011;62589;12.568;99.958;2023-04-15T10:08:22;61.92;;;48.97;;
74229;SDS011;62589;12.568;99.958;2023-04-15T10:10:50;60.50;;;48.67;;
74229;SDS011;62589;12.568;99.958;2023-04-15T10:28:16;64.68;;;50.78;;
74229;SDS011;62589;12.568;99.958;2023-04-15T10:30:42;63.20;;;51.10;;
74229;SDS011;62589;12.568;99.958;2023-04-15T10:33:09;73.25;;;55.90;;
74229;SDS011;62589;12.568;99.958;2023-04-15T10:35:36;68.75;;;53.83;;
74229;SDS011;62589;12.568;99.958;2023-04-15T10:38:30;67.85;;;55.25;;
74229;SDS011;62589;12.568;99.958;2023-04-15T10:43:52;71.57;;;54.00;;
74229;SDS011;62589;12.568;99.958;2023-04-15T10:46:33;72.90;;;57.05;;
74229;SDS011;62589;12.568;99.958;2023-04-15T10:49:10;71.28;;;56.15;;
74229;SDS011;62589;12.568;99.958;2023-04-15T10:51:40;69.32;;;54.58;;
74229;SDS011;62589;12.568;99.958;2023-04-15T10:54:11;69.40;;;54.70;;
74229;SDS011;62589;12.568;99.958;2023-04-15T10:56:43;75.35;;;58.13;;
74229;SDS011;62589;12.568;99.958;2023-04-15T10:59:10;71.75;;;55.53;;
74229;SDS011;62589;12.568;99.958;2023-04-15T11:01:49;67.03;;;55.13;;
74229;SDS011;62589;12.568;99.958;2023-04-15T11:07:10;68.40;;;56.33;;
74229;SDS011;62589;12.568;99.958;2023-04-15T11:09:37;74.30;;;55.33;;
74229;SDS011;62589;12.568;99.958;2023-04-15T11:12:04;74.03;;;55.70;;
74229;SDS011;62589;12.568;99.958;2023-04-15T11:14:40;71.38;;;54.30;;
74229;SDS011;62589;12.568;99.958;2023-04-15T11:17:07;67.72;;;55.33;;
74229;SDS011;62589;12.568;99.958;2023-04-15T11:19:34;74.53;;;57.88;;
74229;SDS011;62589;12.568;99.958;2023-04-15T11:22:08;75.30;;;56.97;;
74229;SDS011;62589;12.568;99.958;2023-04-15T11:24:36;71.22;;;54.58;;
74229;SDS011;62589;12.568;99.958;2023-04-15T11:27:21;67.97;;;55.65;;
74229;SDS011;62589;12.568;99.958;2023-04-15T11:29:48;80.50;;;58.55;;
74229;SDS011;62589;12.568;99.958;2023-04-15T11:32:14;74.63;;;58.67;;
74229;SDS011;62589;12.568;99.958;2023-04-15T11:34:41;73.88;;;55.65;;
74229;SDS011;62589;12.568;99.958;2023-04-15T11:37:11;68.57;;;55.10;;
74229;SDS011;62589;12.568;99.958;2023-04-15T11:39:38;75.82;;;56.55;;
74229;SDS011;62589;12.568;99.958;2023-04-15T11:42:15;77.55;;;55.63;;
74229;SDS011;62589;12.568;99.958;2023-04-15T11:44:42;72.05;;;56.03;;
74229;SDS011;62589;12.568;99.958;2023-04-15T11:49:47;73.22;;;55.97;;
74229;SDS011;62589;12.568;99.958;2023-04-15T11:52:14;72.22;;;57.75;;
74229;SDS011;62589;12.568;99.958;2023-04-15T11:54:40;68.70;;;55.65;;
74229;SDS011;62589;12.568;99.958;2023-04-15T11:57:07;75.53;;;56.60;;
74229;SDS011;62589;12.568;99.958;2023-04-15T11:59:42;68.15;;;54.08;;
74229;SDS011;62589;12.568;99.958;2023-04-15T12:02:12;65.90;;;54.20;;
74229;SDS011;62589;12.568;99.958;2023-04-15T12:04:39;72.30;;;57.45;;
74229;SDS011;62589;12.568;99.958;2023-04-15T12:07:05;71.85;;;53.95;;
74229;SDS011;62589;12.568;99.958;2023-04-15T12:09:36;70.32;;;55.03;;
74229;SDS011;62589;12.568;99.958;2023-04-15T12:12:04;76.80;;;55.53;;
74229;SDS011;62589;12.568;99.958;2023-04-15T12:14:30;70.82;;;55.30;;
74229;SDS011;62589;12.568;99.958;2023-04-15T12:16:58;76.68;;;56.35;;
74229;SDS011;62589;12.568;99.958;2023-04-15T12:19:36;69.25;;;53.60;;
74229;SDS011;62589;12.568;99.958;2023-04-15T12:22:09;74.20;;;55.58;;
74229;SDS011;62589;12.568;99.958;2023-04-15T12:24:37;67.78;;;53.40;;
74229;SDS011;62589;12.568;99.958;2023-04-15T12:27:05;70.93;;;55.50;;
74229;SDS011;62589;12.568;99.958;2023-04-15T12:29:33;71.68;;;55.40;;
74229;SDS011;62589;12.568;99.958;2023-04-15T12:32:08;72.38;;;56.47;;
74229;SDS011;62589;12.568;99.958;2023-04-15T12:34:37;78.65;;;57.50;;
74229;SDS011;62589;12.568;99.958;2023-04-15T12:37:09;68.70;;;54.80;;
74229;SDS011;62589;12.568;99.958;2023-04-15T12:39:38;68.03;;;54.72;;
74229;SDS011;62589;12.568;99.958;2023-04-15T12:42:06;70.85;;;54.92;;
74229;SDS011;62589;12.568;99.958;2023-04-15T12:44:33;74.70;;;57.13;;
74229;SDS011;62589;12.568;99.958;2023-04-15T12:47:00;69.20;;;55.88;;
74229;SDS011;62589;12.568;99.958;2023-04-15T12:49:27;74.72;;;57.75;;
74229;SDS011;62589;12.568;99.958;2023-04-15T12:51:54;77.57;;;58.70;;
74229;SDS011;62589;12.568;99.958;2023-04-15T12:54:24;74.25;;;59.03;;
74229;SDS011;62589;12.568;99.958;2023-04-15T12:56:51;75.90;;;57.20;;
74229;SDS011;62589;12.568;99.958;2023-04-15T12:59:18;77.43;;;57.83;;
74229;SDS011;62589;12.568;99.958;2023-04-15T13:01:45;74.88;;;59.20;;
74229;SDS011;62589;12.568;99.958;2023-04-15T13:04:13;74.35;;;57.83;;
74229;SDS011;62589;12.568;99.958;2023-04-15T13:06:40;77.40;;;58.35;;
74229;SDS011;62589;12.568;99.958;2023-04-15T13:09:07;76.97;;;58.50;;
74229;SDS011;62589;12.568;99.958;2023-04-15T13:11:33;73.68;;;60.20;;
74229;SDS011;62589;12.568;99.958;2023-04-15T13:14:02;73.35;;;56.22;;
74229;SDS011;62589;12.568;99.958;2023-04-15T13:16:30;78.38;;;59.25;;
74229;SDS011;62589;12.568;99.958;2023-04-15T13:19:00;75.00;;;58.50;;
74229;SDS011;62589;12.568;99.958;2023-04-15T13:21:28;71.45;;;57.70;;
74229;SDS011;62589;12.568;99.958;2023-04-15T13:23:56;77.10;;;59.00;;
74229;SDS011;62589;12.568;99.958;2023-04-15T13:26:22;76.78;;;60.20;;
74229;SDS011;62589;12.568;99.958;2023-04-15T13:28:49;73.55;;;57.45;;
74229;SDS011;62589;12.568;99.958;2023-04-15T13:31:15;72.88;;;58.80;;
74229;SDS011;62589;12.568;99.958;2023-04-15T13:33:41;79.15;;;57.72;;
74229;SDS011;62589;12.568;99.958;2023-04-15T13:36:08;79.82;;;63.42;;
74229;SDS011;62589;12.568;99.958;2023-04-15T13:38:34;74.80;;;59.22;;
74229;SDS011;62589;12.568;99.958;2023-04-15T13:41:00;74.95;;;58.95;;
74229;SDS011;62589;12.568;99.958;2023-04-15T13:43:27;74.57;;;58.35;;
74229;SDS011;62589;12.568;99.958;2023-04-15T13:45:53;79.90;;;59.40;;
74229;SDS011;62589;12.568;99.958;2023-04-15T13:48:20;81.45;;;59.42;;
74229;SDS011;62589;12.568;99.958;2023-04-15T13:50:46;79.15;;;59.08;;
74229;SDS011;62589;12.568;99.958;2023-04-15T13:53:13;77.95;;;59.45;;
74229;SDS011;62589;12.568;99.958;2023-04-15T13:55:39;71.93;;;58.22;;
74229;SDS011;62589;12.568;99.958;2023-04-15T13:58:07;74.32;;;59.55;;
74229;SDS011;62589;12.568;99.958;2023-04-15T14:00:33;74.57;;;59.03;;
74229;SDS011;62589;12.568;99.958;2023-04-15T14:03:00;68.50;;;56.05;;
74229;SDS011;62589;12.568;99.958;2023-04-15T14:05:26;76.55;;;60.45;;
74229;SDS011;62589;12.568;99.958;2023-04-15T14:07:53;73.85;;;58.72;;
74229;SDS011;62589;12.568;99.958;2023-04-15T14:10:19;71.93;;;57.17;;
74229;SDS011;62589;12.568;99.958;2023-04-15T14:12:45;73.18;;;55.97;;
74229;SDS011;62589;12.568;99.958;2023-04-15T14:15:12;69.63;;;57.47;;
74229;SDS011;62589;12.568;99.958;2023-04-15T14:17:38;72.43;;;56.88;;
74229;SDS011;62589;12.568;99.958;2023-04-15T14:20:07;70.55;;;55.53;;
74229;SDS011;62589;12.568;99.958;2023-04-15T14:22:34;75.78;;;57.72;;
74229;SDS011;62589;12.568;99.958;2023-04-15T14:25:00;70.60;;;58.05;;
74229;SDS011;62589;12.568;99.958;2023-04-15T14:27:27;71.38;;;55.42;;
74229;SDS011;62589;12.568;99.958;2023-04-15T14:29:53;72.15;;;55.78;;
74229;SDS011;62589;12.568;99.958;2023-04-15T14:32:20;67.75;;;54.80;;
74229;SDS011;62589;12.568;99.958;2023-04-15T14:34:46;67.38;;;54.60;;
74229;SDS011;62589;12.568;99.958;2023-04-15T14:37:12;66.10;;;53.55;;
74229;SDS011;62589;12.568;99.958;2023-04-15T14:39:39;65.80;;;54.35;;
74229;SDS011;62589;12.568;99.958;2023-04-15T14:42:06;67.90;;;54.38;;
74229;SDS011;62589;12.568;99.958;2023-04-15T14:44:32;72.10;;;56.80;;
74229;SDS011;62589;12.568;99.958;2023-04-15T14:46:58;73.70;;;53.70;;
74229;SDS011;62589;12.568;99.958;2023-04-15T14:49:25;65.47;;;53.80;;
74229;SDS011;62589;12.568;99.958;2023-04-15T14:51:51;68.57;;;54.63;;
74229;SDS011;62589;12.568;99.958;2023-04-15T14:54:17;75.43;;;56.58;;
74229;SDS011;62589;12.568;99.958;2023-04-15T14:56:44;66.45;;;53.75;;
74229;SDS011;62589;12.568;99.958;2023-04-15T14:59:10;72.82;;;55.03;;